Time;durP1;ratioP1;P1;durP2;ratioP2;P2;SDS_P1;SDS_P2;PMS_P1;PMS_P2;Temp;Humidity;BMP_temperature;BMP_pressure;BME280_temperature;BME280_humidity;BME280_pressure;Samples;Min_cycle;Max_cycle;Signal;HPM_P1;HPM_P2
2022/06/08 00:00:15;;;;;;;15.02;10.70;;;;;;;;;;5115556;28;20213;-43
2022/06/08 00:03:05;;;;;;;14.60;10.50;;;;;;;;;;5115492;28;20730;-42
2022/06/08 00:05:32;;;;;;;18.38;11.05;;;;;;;;;;5115627;28;20682;-42
2022/06/08 00:07:59;;;;;;;16.90;10.80;;;;;;;;;;5115765;28;20209;-42
2022/06/08 00:10:26;;;;;;;15.73;10.25;;;;;;;;;;5115756;28;20205;-42
2022/06/08 00:12:53;;;;;;;15.55;10.80;;;;;;;;;;5115795;28;20190;-42
2022/06/08 00:15:21;;;;;;;18.40;10.45;;;;;;;;;;5115644;28;20198;-43
2022/06/08 00:17:48;;;;;;;20.83;11.23;;;;;;;;;;5115284;28;20202;-42
2022/06/08 00:20:15;;;;;;;15.50;10.65;;;;;;;;;;5115608;28;20256;-42
2022/06/08 00:22:42;;;;;;;13.60;10.93;;;;;;;;;;5115468;28;20229;-42
2022/06/08 00:25:11;;;;;;;13.93;11.32;;;;;;;;;;5115651;28;20206;-43
2022/06/08 00:27:38;;;;;;;20.63;11.10;;;;;;;;;;5115939;28;20585;-43
2022/06/08 00:30:08;;;;;;;17.58;11.40;;;;;;;;;;5114921;28;20742;-43
2022/06/08 00:32:35;;;;;;;15.23;12.15;;;;;;;;;;5115284;28;20210;-42
2022/06/08 00:35:03;;;;;;;12.32;10.95;;;;;;;;;;5097673;28;20213;-42
2022/06/08 00:37:31;;;;;;;19.02;11.82;;;;;;;;;;5097663;28;20271;-42
2022/06/08 00:39:58;;;;;;;18.88;11.90;;;;;;;;;;5097573;28;20201;-42
2022/06/08 00:42:26;;;;;;;12.60;11.30;;;;;;;;;;5115303;28;20242;-42
2022/06/08 00:44:59;;;;;;;13.35;10.95;;;;;;;;;;5097738;28;20202;-42
2022/06/08 00:47:38;;;;;;;14.88;11.00;;;;;;;;;;5115410;28;20186;-42
2022/06/08 00:50:21;;;;;;;16.05;10.73;;;;;;;;;;5097449;28;20198;-42
2022/06/08 00:52:49;;;;;;;18.33;11.50;;;;;;;;;;5097428;28;20527;-42
2022/06/08 00:55:19;;;;;;;13.98;11.80;;;;;;;;;;5114952;28;20198;-43
2022/06/08 00:57:48;;;;;;;12.88;11.07;;;;;;;;;;5114821;28;20198;-42
2022/06/08 01:00:22;;;;;;;12.05;10.75;;;;;;;;;;5115503;28;20193;-42
2022/06/08 01:02:49;;;;;;;11.70;10.57;;;;;;;;;;5114839;28;20210;-42
2022/06/08 01:05:44;;;;;;;18.58;11.45;;;;;;;;;;5097192;28;20685;-42
2022/06/08 01:08:19;;;;;;;12.98;10.95;;;;;;;;;;5097009;28;20213;-42
2022/06/08 01:10:49;;;;;;;14.35;10.85;;;;;;;;;;5097281;28;20194;-42
2022/06/08 01:13:20;;;;;;;14.90;10.45;;;;;;;;;;5098060;28;20186;-42
2022/06/08 01:15:48;;;;;;;17.08;11.13;;;;;;;;;;5114738;28;20202;-42
2022/06/08 01:18:18;;;;;;;17.55;11.10;;;;;;;;;;5097935;28;20202;-42
2022/06/08 01:20:53;;;;;;;15.82;10.70;;;;;;;;;;5097315;28;20511;-42
2022/06/08 01:23:24;;;;;;;17.23;10.77;;;;;;;;;;5097207;28;20210;-42
2022/06/08 01:26:14;;;;;;;20.00;10.00;;;;;;;;;;5097494;28;20202;-42
2022/06/08 01:29:14;;;;;;;20.80;10.57;;;;;;;;;;5080526;28;20196;-43
2022/06/08 01:32:00;;;;;;;17.42;10.57;;;;;;;;;;5130916;28;20206;-42
2022/06/08 01:34:30;;;;;;;15.70;10.32;;;;;;;;;;5096681;28;20216;-42
2022/06/08 01:37:35;;;;;;;16.23;10.70;;;;;;;;;;5114526;28;20616;-42
2022/06/08 01:40:37;;;;;;;13.52;11.68;;;;;;;;;;5114327;28;20578;-43
2022/06/08 01:43:48;;;;;;;13.38;11.90;;;;;;;;;;5115201;28;20685;-42
2022/06/08 01:46:24;;;;;;;14.27;10.57;;;;;;;;;;5134532;27;20193;-42
2022/06/08 01:49:06;;;;;;;13.00;10.77;;;;;;;;;;5100026;28;20518;-44
2022/06/08 01:51:49;;;;;;;13.52;11.13;;;;;;;;;;5118277;28;20190;-42
2022/06/08 01:54:17;;;;;;;17.40;10.65;;;;;;;;;;5118204;28;20493;-42
2022/06/08 01:56:51;;;;;;;16.85;11.73;;;;;;;;;;5117577;28;20198;-43
2022/06/08 01:59:22;;;;;;;14.90;11.75;;;;;;;;;;5100184;28;20186;-42
2022/06/08 02:01:59;;;;;;;14.68;12.77;;;;;;;;;;5099748;28;20205;-43
2022/06/08 02:04:42;;;;;;;15.95;14.18;;;;;;;;;;5117997;28;20194;-42
2022/06/08 02:07:26;;;;;;;19.58;14.02;;;;;;;;;;5117883;28;20190;-42
2022/06/08 02:10:01;;;;;;;18.75;14.30;;;;;;;;;;5083058;28;20193;-43
2022/06/08 02:12:32;;;;;;;18.55;14.05;;;;;;;;;;5099629;28;20217;-42
2022/06/08 02:15:09;;;;;;;17.80;14.35;;;;;;;;;;5099722;28;20546;-42
2022/06/08 02:17:51;;;;;;;23.23;14.85;;;;;;;;;;5084360;28;20197;-42
2022/06/08 02:20:31;;;;;;;20.25;14.85;;;;;;;;;;5099788;28;20186;-43
2022/06/08 02:23:28;;;;;;;19.45;14.82;;;;;;;;;;5099381;28;20725;-42
2022/06/08 02:26:01;;;;;;;22.55;16.13;;;;;;;;;;5131178;27;20283;-43
2022/06/08 02:28:33;;;;;;;22.63;15.50;;;;;;;;;;5082962;28;20194;-42
2022/06/08 02:31:21;;;;;;;21.02;16.30;;;;;;;;;;5099262;28;20187;-43
2022/06/08 02:36:45;;;;;;;17.35;14.32;;;;;;;;;;5099562;28;20194;-42
2022/06/08 02:39:22;;;;;;;23.90;14.20;;;;;;;;;;5117089;28;20198;-42
2022/06/08 02:41:56;;;;;;;17.95;15.25;;;;;;;;;;5099651;28;20219;-42
2022/06/08 02:44:28;;;;;;;16.85;14.57;;;;;;;;;;5082863;28;20274;-42
2022/06/08 02:47:04;;;;;;;18.52;15.23;;;;;;;;;;5099658;28;20209;-42
2022/06/08 02:49:36;;;;;;;19.50;15.38;;;;;;;;;;5099239;28;20186;-42
2022/06/08 02:52:19;;;;;;;18.35;13.73;;;;;;;;;;5099119;28;20197;-42
2022/06/08 02:54:50;;;;;;;17.65;14.27;;;;;;;;;;5098939;28;20194;-42
2022/06/08 02:57:40;;;;;;;22.02;14.25;;;;;;;;;;5099126;28;20198;-41
2022/06/08 03:00:14;;;;;;;20.38;14.52;;;;;;;;;;5098888;28;20229;-42
2022/06/08 03:02:45;;;;;;;16.42;13.85;;;;;;;;;;5082619;28;20218;-44
2022/06/08 03:05:17;;;;;;;21.88;17.25;;;;;;;;;;5099006;28;20248;-42
2022/06/08 03:07:54;;;;;;;16.13;13.90;;;;;;;;;;5116902;28;20255;-42
2022/06/08 03:10:23;;;;;;;23.42;18.67;;;;;;;;;;5116951;28;20178;-42
2022/06/08 03:12:57;;;;;;;28.27;19.40;;;;;;;;;;5082220;28;20213;-43
2022/06/08 03:15:25;;;;;;;23.55;20.10;;;;;;;;;;5098979;28;20208;-43
2022/06/08 03:17:54;;;;;;;27.45;17.92;;;;;;;;;;5098912;28;20202;-42
2022/06/08 03:20:23;;;;;;;18.33;16.20;;;;;;;;;;5098871;28;20206;-43
2022/06/08 03:22:52;;;;;;;24.02;17.15;;;;;;;;;;5082219;28;20301;-43
2022/06/08 03:25:20;;;;;;;17.75;14.98;;;;;;;;;;5098749;28;20213;-42
2022/06/08 03:27:50;;;;;;;20.95;17.38;;;;;;;;;;5098985;28;20201;-42
2022/06/08 03:30:18;;;;;;;20.58;16.50;;;;;;;;;;5098619;28;20288;-43
2022/06/08 03:32:45;;;;;;;24.88;16.67;;;;;;;;;;5098634;28;20205;-44
2022/06/08 03:35:12;;;;;;;23.70;17.23;;;;;;;;;;5081803;28;20198;-42
2022/06/08 03:37:43;;;;;;;26.63;17.75;;;;;;;;;;5098126;28;20635;-42
2022/06/08 03:40:14;;;;;;;24.83;18.30;;;;;;;;;;5098295;28;20202;-42
2022/06/08 03:42:41;;;;;;;19.95;16.92;;;;;;;;;;5116059;28;20731;-43
2022/06/08 03:45:10;;;;;;;20.52;18.15;;;;;;;;;;5098380;28;20210;-42
2022/06/08 03:47:42;;;;;;;21.38;17.30;;;;;;;;;;5098365;28;20210;-43
2022/06/08 03:50:13;;;;;;;25.05;19.25;;;;;;;;;;5116160;28;20270;-43
2022/06/08 03:52:45;;;;;;;21.60;19.23;;;;;;;;;;5116095;28;20259;-43
2022/06/08 03:55:13;;;;;;;21.33;19.05;;;;;;;;;;5098572;28;20557;-42
2022/06/08 03:57:44;;;;;;;21.65;19.30;;;;;;;;;;5098133;28;20213;-42
2022/06/08 04:00:15;;;;;;;23.58;21.15;;;;;;;;;;5093562;27;20300;-44
2022/06/08 04:02:54;;;;;;;25.95;20.77;;;;;;;;;;5117641;27;20235;-45
2022/06/08 04:05:28;;;;;;;30.60;22.90;;;;;;;;;;5114240;27;20228;-47
2022/06/08 04:07:57;;;;;;;27.98;22.27;;;;;;;;;;5112067;28;20237;-49
2022/06/08 04:10:25;;;;;;;25.88;23.25;;;;;;;;;;5133404;27;20228;-42
2022/06/08 04:12:56;;;;;;;29.40;23.50;;;;;;;;;;5114165;27;20225;-42
2022/06/08 04:15:44;;;;;;;25.85;22.80;;;;;;;;;;5122295;27;20294;-42
2022/06/08 04:18:23;;;;;;;25.58;21.98;;;;;;;;;;5102537;28;20229;-43
2022/06/08 04:20:56;;;;;;;26.17;22.38;;;;;;;;;;5096844;28;20226;-48
2022/06/08 04:23:31;;;;;;;25.52;21.77;;;;;;;;;;5096781;28;20252;-42
2022/06/08 04:26:00;;;;;;;26.17;21.70;;;;;;;;;;5112051;27;20256;-42
2022/06/08 04:28:28;;;;;;;24.83;22.23;;;;;;;;;;5117224;28;20225;-42
2022/06/08 04:31:02;;;;;;;27.85;22.70;;;;;;;;;;5116689;28;20221;-42
2022/06/08 04:33:32;;;;;;;27.05;22.00;;;;;;;;;;5116918;28;20312;-42
2022/06/08 04:35:59;;;;;;;24.27;21.67;;;;;;;;;;5135066;27;20225;-44
2022/06/08 04:38:28;;;;;;;23.75;21.27;;;;;;;;;;5116751;28;20274;-45
2022/06/08 04:40:55;;;;;;;24.73;22.23;;;;;;;;;;5115765;28;20300;-43
2022/06/08 04:43:23;;;;;;;26.42;22.75;;;;;;;;;;5115137;28;20277;-42
2022/06/08 04:45:51;;;;;;;26.98;22.42;;;;;;;;;;5116355;28;20229;-46
2022/06/08 04:48:21;;;;;;;27.20;23.80;;;;;;;;;;5111216;28;20228;-43
2022/06/08 04:50:49;;;;;;;23.98;21.48;;;;;;;;;;5108241;28;20229;-45
2022/06/08 04:53:16;;;;;;;25.02;22.40;;;;;;;;;;5129605;28;20230;-45
2022/06/08 04:55:44;;;;;;;27.77;23.00;;;;;;;;;;5094976;28;20225;-48
2022/06/08 04:58:12;;;;;;;25.77;23.20;;;;;;;;;;5096192;28;20280;-50
2022/06/08 05:00:41;;;;;;;26.02;23.33;;;;;;;;;;5096194;28;20237;-42
2022/06/08 05:03:09;;;;;;;24.20;21.80;;;;;;;;;;5130428;28;20399;-45
2022/06/08 05:05:40;;;;;;;30.55;21.40;;;;;;;;;;5096472;28;20225;-41
2022/06/08 05:08:11;;;;;;;23.45;20.42;;;;;;;;;;5096253;28;20229;-42
2022/06/08 05:10:42;;;;;;;23.00;20.60;;;;;;;;;;5096672;28;20222;-41
2022/06/08 05:13:14;;;;;;;25.13;20.30;;;;;;;;;;5096808;28;20230;-41
2022/06/08 05:15:45;;;;;;;23.08;20.88;;;;;;;;;;5131361;28;20190;-41
2022/06/08 05:18:14;;;;;;;24.23;20.73;;;;;;;;;;5084026;28;20204;-41
2022/06/08 05:20:43;;;;;;;22.38;20.13;;;;;;;;;;5101600;28;20209;-41
2022/06/08 05:23:20;;;;;;;21.70;19.40;;;;;;;;;;5100942;28;20220;-41
2022/06/08 05:25:49;;;;;;;21.83;18.77;;;;;;;;;;5101242;28;20193;-42
2022/06/08 05:28:16;;;;;;;22.45;19.48;;;;;;;;;;5118803;28;20236;-42
2022/06/08 05:30:50;;;;;;;21.90;19.60;;;;;;;;;;5101183;28;20518;-41
2022/06/08 05:33:18;;;;;;;21.27;18.73;;;;;;;;;;5100925;28;20202;-41
2022/06/08 05:35:46;;;;;;;21.63;19.33;;;;;;;;;;5100595;28;20201;-41
2022/06/08 05:38:15;;;;;;;24.05;18.23;;;;;;;;;;5100475;28;20201;-41
2022/06/08 05:40:42;;;;;;;21.60;19.50;;;;;;;;;;5100515;28;20623;-41
2022/06/08 05:43:13;;;;;;;20.58;18.48;;;;;;;;;;5100298;28;20224;-42
2022/06/08 05:45:46;;;;;;;22.30;19.77;;;;;;;;;;5112544;27;20192;-41
2022/06/08 05:48:14;;;;;;;21.88;17.42;;;;;;;;;;5121254;27;20208;-41
2022/06/08 05:50:43;;;;;;;20.00;18.00;;;;;;;;;;5120969;27;20595;-41
2022/06/08 05:53:14;;;;;;;24.67;18.30;;;;;;;;;;5121247;27;20194;-41
2022/06/08 05:55:41;;;;;;;20.55;18.20;;;;;;;;;;5120604;27;20209;-41
2022/06/08 05:58:09;;;;;;;22.17;18.17;;;;;;;;;;5120404;27;20216;-42
2022/06/08 06:00:39;;;;;;;21.48;18.30;;;;;;;;;;5121151;27;20211;-41
2022/06/08 06:03:07;;;;;;;19.15;17.17;;;;;;;;;;5138656;27;20193;-41
2022/06/08 06:05:37;;;;;;;23.05;18.88;;;;;;;;;;5120584;27;20225;-41
2022/06/08 06:08:10;;;;;;;19.77;17.67;;;;;;;;;;5120460;27;20606;-42
2022/06/08 06:10:43;;;;;;;23.48;17.45;;;;;;;;;;5121149;27;20201;-44
2022/06/08 06:13:13;;;;;;;23.42;18.05;;;;;;;;;;5120804;27;20189;-41
2022/06/08 06:15:45;;;;;;;19.58;17.15;;;;;;;;;;5120662;27;20205;-43
2022/06/08 06:18:16;;;;;;;20.15;18.17;;;;;;;;;;5138960;27;20193;-43
2022/06/08 06:20:49;;;;;;;19.13;17.20;;;;;;;;;;5120477;27;20189;-41
2022/06/08 06:23:26;;;;;;;19.33;17.40;;;;;;;;;;5120435;27;20213;-41
2022/06/08 06:26:15;;;;;;;18.90;16.90;;;;;;;;;;5124881;27;20197;-43
2022/06/08 06:28:51;;;;;;;18.98;16.48;;;;;;;;;;5119569;27;20189;-41
2022/06/08 06:31:46;;;;;;;16.80;15.10;;;;;;;;;;5120297;27;20200;-41
2022/06/08 06:34:20;;;;;;;16.67;14.38;;;;;;;;;;5120353;27;20194;-41
2022/06/08 06:36:49;;;;;;;15.77;14.07;;;;;;;;;;5120252;27;20276;-41
2022/06/08 06:39:16;;;;;;;17.98;14.57;;;;;;;;;;5120064;27;20280;-41
2022/06/08 06:41:45;;;;;;;16.15;14.45;;;;;;;;;;5119770;27;20588;-41
2022/06/08 06:44:13;;;;;;;16.35;14.27;;;;;;;;;;5119604;27;20275;-41
2022/06/08 06:46:53;;;;;;;16.15;13.75;;;;;;;;;;5120033;27;20249;-41
2022/06/08 06:49:47;;;;;;;14.95;13.32;;;;;;;;;;5134117;27;20580;-41
2022/06/08 06:52:15;;;;;;;15.70;13.80;;;;;;;;;;5119797;27;20205;-43
2022/06/08 06:54:42;;;;;;;15.63;13.02;;;;;;;;;;5119411;27;20201;-41
2022/06/08 06:57:10;;;;;;;15.07;13.38;;;;;;;;;;5119658;27;20201;-41
2022/06/08 06:59:38;;;;;;;15.93;14.20;;;;;;;;;;5119673;27;20205;-42
2022/06/08 07:02:15;;;;;;;16.63;14.93;;;;;;;;;;5119305;27;20630;-41
2022/06/08 07:04:44;;;;;;;16.52;14.73;;;;;;;;;;5119346;27;20224;-42
2022/06/08 07:07:11;;;;;;;14.10;12.80;;;;;;;;;;5119249;27;20637;-41
2022/06/08 07:09:39;;;;;;;13.85;12.50;;;;;;;;;;5119110;27;20630;-41
2022/06/08 07:12:07;;;;;;;13.98;12.02;;;;;;;;;;5119479;27;20213;-42
2022/06/08 07:14:39;;;;;;;13.88;12.52;;;;;;;;;;5119503;27;20189;-41
2022/06/08 07:17:12;;;;;;;18.40;12.90;;;;;;;;;;5119473;27;20193;-42
2022/06/08 07:19:42;;;;;;;13.75;12.35;;;;;;;;;;5119673;27;20193;-41
2022/06/08 07:22:10;;;;;;;13.18;11.88;;;;;;;;;;5119250;27;20248;-41
2022/06/08 07:24:38;;;;;;;13.90;12.50;;;;;;;;;;5136652;27;20221;-42
2022/06/08 07:27:05;;;;;;;17.17;12.50;;;;;;;;;;5136757;27;20201;-41
2022/06/08 07:29:33;;;;;;;16.25;12.75;;;;;;;;;;5137049;27;20209;-42
2022/06/08 07:32:01;;;;;;;13.68;11.38;;;;;;;;;;5136942;27;20201;-41
2022/06/08 07:34:28;;;;;;;13.50;12.10;;;;;;;;;;5136914;27;20208;-42
2022/06/08 07:36:55;;;;;;;13.68;11.73;;;;;;;;;;5136600;27;20297;-42
2022/06/08 07:39:23;;;;;;;13.93;12.10;;;;;;;;;;5136769;27;20201;-42
2022/06/08 07:41:50;;;;;;;13.48;12.07;;;;;;;;;;5136544;27;20288;-42
2022/06/08 07:44:18;;;;;;;12.60;11.30;;;;;;;;;;5136751;27;20236;-42
2022/06/08 07:46:46;;;;;;;15.25;10.90;;;;;;;;;;5136393;27;20641;-42
2022/06/08 07:52:01;;;;;;;15.02;11.77;;;;;;;;;;5137440;27;20193;-41
2022/06/08 07:54:30;;;;;;;16.40;11.48;;;;;;;;;;5136616;27;20209;-42
2022/06/08 07:56:59;;;;;;;13.18;10.57;;;;;;;;;;5136889;27;20218;-43
2022/06/08 07:59:28;;;;;;;11.95;10.10;;;;;;;;;;5136505;27;20197;-42
2022/06/08 08:01:55;;;;;;;11.73;9.73;;;;;;;;;;5136528;27;20221;-41
2022/06/08 08:04:23;;;;;;;11.30;10.13;;;;;;;;;;5136315;27;20217;-42
2022/06/08 08:06:50;;;;;;;11.50;9.70;;;;;;;;;;5136949;27;20297;-41
2022/06/08 08:09:17;;;;;;;13.20;10.00;;;;;;;;;;5136070;27;20197;-43
2022/06/08 08:11:47;;;;;;;11.27;10.07;;;;;;;;;;5136040;27;20197;-41
2022/06/08 08:14:15;;;;;;;12.35;9.57;;;;;;;;;;5135934;27;20220;-42
2022/06/08 08:16:45;;;;;;;12.60;9.95;;;;;;;;;;5135916;27;20216;-42
2022/06/08 08:19:15;;;;;;;16.65;10.77;;;;;;;;;;5135911;27;20273;-41
2022/06/08 08:21:42;;;;;;;14.02;10.95;;;;;;;;;;5136349;27;20216;-42
2022/06/08 08:24:09;;;;;;;14.90;10.02;;;;;;;;;;5136090;27;20601;-41
2022/06/08 08:26:36;;;;;;;15.07;10.07;;;;;;;;;;5136120;27;20233;-41
2022/06/08 08:29:04;;;;;;;19.92;10.07;;;;;;;;;;5135776;27;20535;-41
2022/06/08 08:31:32;;;;;;;12.45;9.80;;;;;;;;;;5135715;28;20197;-41
2022/06/08 08:34:00;;;;;;;14.98;9.35;;;;;;;;;;5136226;28;20213;-41
2022/06/08 08:36:27;;;;;;;21.10;9.27;;;;;;;;;;5135692;28;20634;-41
2022/06/08 08:38:54;;;;;;;12.00;9.43;;;;;;;;;;5136003;28;20254;-41
2022/06/08 08:44:39;;;;;;;13.13;8.70;;;;;;;;;;5135618;28;20217;-42
2022/06/08 08:47:28;;;;;;;11.75;10.25;;;;;;;;;;5101371;28;20220;-41
2022/06/08 08:50:16;;;;;;;13.45;10.20;;;;;;;;;;5136096;28;20193;-42
2022/06/08 08:52:54;;;;;;;11.57;10.48;;;;;;;;;;5087234;27;20212;-41
2022/06/08 08:55:46;;;;;;;16.30;12.75;;;;;;;;;;5140573;27;20254;-42
2022/06/08 08:58:21;;;;;;;14.38;11.25;;;;;;;;;;5139965;27;20196;-41
2022/06/08 09:00:52;;;;;;;18.30;11.98;;;;;;;;;;5123057;27;20185;-41
2022/06/08 09:03:33;;;;;;;13.30;11.77;;;;;;;;;;5139662;27;20186;-41
2022/06/08 09:06:07;;;;;;;11.32;10.07;;;;;;;;;;5140161;27;20245;-41
2022/06/08 09:08:34;;;;;;;13.63;9.93;;;;;;;;;;5140010;27;20196;-42
2022/06/08 09:11:02;;;;;;;16.02;9.90;;;;;;;;;;5121834;27;20209;-41
2022/06/08 09:13:44;;;;;;;11.85;8.85;;;;;;;;;;5139706;27;20536;-42
2022/06/08 09:16:27;;;;;;;11.15;9.32;;;;;;;;;;5140132;27;20204;-41
2022/06/08 09:18:54;;;;;;;11.30;9.60;;;;;;;;;;5139852;27;20192;-41
2022/06/08 09:21:21;;;;;;;14.18;11.98;;;;;;;;;;5139247;27;20197;-42
2022/06/08 09:23:50;;;;;;;12.70;11.30;;;;;;;;;;5139178;27;20649;-42
2022/06/08 09:26:23;;;;;;;15.18;11.73;;;;;;;;;;5139451;27;20201;-42
2022/06/08 09:29:26;;;;;;;15.50;11.25;;;;;;;;;;5139749;27;20185;-41
2022/06/08 09:31:56;;;;;;;12.90;11.50;;;;;;;;;;5114734;27;20281;-43
2022/06/08 09:34:29;;;;;;;15.90;12.27;;;;;;;;;;5139286;27;20262;-41
2022/06/08 09:37:21;;;;;;;14.73;13.10;;;;;;;;;;5104549;27;20285;-42
2022/06/08 09:39:48;;;;;;;15.90;13.88;;;;;;;;;;5139345;27;20181;-41
2022/06/08 09:42:25;;;;;;;15.95;13.07;;;;;;;;;;5120797;27;20634;-41
2022/06/08 09:45:17;;;;;;;13.48;10.88;;;;;;;;;;5139510;27;20228;-41
2022/06/08 09:51:25;;;;;;;13.98;12.55;;;;;;;;;;5138706;27;20680;-43
2022/06/08 09:54:11;;;;;;;13.00;11.25;;;;;;;;;;5138690;27;20197;-42
2022/06/08 09:57:16;;;;;;;12.57;11.27;;;;;;;;;;5139003;27;20250;-42
2022/06/08 09:59:55;;;;;;;13.90;10.27;;;;;;;;;;5121238;27;20208;-42
2022/06/08 10:02:38;;;;;;;11.43;9.48;;;;;;;;;;5138524;27;20201;-44
2022/06/08 10:05:27;;;;;;;14.93;10.15;;;;;;;;;;5137147;27;20229;-42
2022/06/08 10:07:57;;;;;;;12.68;10.70;;;;;;;;;;5138320;27;20258;-42
2022/06/08 10:10:46;;;;;;;12.15;10.95;;;;;;;;;;5138298;27;20554;-44
2022/06/08 10:13:20;;;;;;;10.45;8.45;;;;;;;;;;5138294;27;20242;-41
2022/06/08 10:15:53;;;;;;;12.38;8.35;;;;;;;;;;5121211;27;20205;-41
2022/06/08 10:18:26;;;;;;;8.85;7.95;;;;;;;;;;5103679;27;20201;-41
2022/06/08 10:21:00;;;;;;;14.93;13.35;;;;;;;;;;5121248;27;20189;-41
2022/06/08 10:23:39;;;;;;;14.30;10.75;;;;;;;;;;5120286;27;20626;-42
2022/06/08 10:26:09;;;;;;;13.90;11.85;;;;;;;;;;5120571;27;20209;-41
2022/06/08 10:28:53;;;;;;;15.15;12.98;;;;;;;;;;5138326;27;20196;-41
2022/06/08 10:31:29;;;;;;;12.98;11.35;;;;;;;;;;5120887;27;20196;-41
2022/06/08 10:34:04;;;;;;;14.30;12.13;;;;;;;;;;5120347;27;20189;-42
2022/06/08 10:36:37;;;;;;;8.88;8.07;;;;;;;;;;5104398;27;20222;-42
2022/06/08 10:39:05;;;;;;;9.80;6.97;;;;;;;;;;5120338;27;20200;-41
2022/06/08 10:44:42;;;;;;;12.05;10.93;;;;;;;;;;5137745;27;20525;-41
2022/06/08 10:47:12;;;;;;;13.25;10.60;;;;;;;;;;5138197;27;20185;-41
2022/06/08 10:49:39;;;;;;;12.13;10.93;;;;;;;;;;5138005;27;20185;-41
2022/06/08 10:52:12;;;;;;;16.02;10.73;;;;;;;;;;5137476;27;20201;-41
2022/06/08 10:54:53;;;;;;;11.68;10.45;;;;;;;;;;5137832;27;20250;-41
2022/06/08 10:57:31;;;;;;;11.52;10.30;;;;;;;;;;5137607;27;20185;-43
2022/06/08 11:00:21;;;;;;;12.80;8.95;;;;;;;;;;5137923;27;20320;-41
2022/06/08 11:03:02;;;;;;;11.70;9.40;;;;;;;;;;5137934;27;20182;-41
2022/06/08 11:05:47;;;;;;;10.00;9.00;;;;;;;;;;5119266;27;20539;-41
2022/06/08 11:08:51;;;;;;;11.80;8.98;;;;;;;;;;5120028;27;20189;-43
2022/06/08 11:11:40;;;;;;;14.30;8.98;;;;;;;;;;5113907;28;20218;-42
2022/06/08 11:14:32;;;;;;;13.82;9.15;;;;;;;;;;5115638;28;20683;-42
2022/06/08 11:17:03;;;;;;;13.73;9.93;;;;;;;;;;5116227;28;20237;-42
2022/06/08 11:19:32;;;;;;;13.60;9.57;;;;;;;;;;5118067;27;20259;-44
2022/06/08 11:22:13;;;;;;;12.00;9.77;;;;;;;;;;5118767;27;20548;-43
2022/06/08 11:24:45;;;;;;;12.07;9.88;;;;;;;;;;5115545;27;20217;-45
2022/06/08 11:27:32;;;;;;;13.40;9.93;;;;;;;;;;5133351;27;20213;-45
2022/06/08 11:30:23;;;;;;;13.35;11.80;;;;;;;;;;5123595;27;20245;-43
2022/06/08 11:32:50;;;;;;;12.27;10.98;;;;;;;;;;5115485;28;20234;-43
2022/06/08 11:35:33;;;;;;;13.95;11.10;;;;;;;;;;5115494;28;20222;-43
2022/06/08 11:38:45;;;;;;;13.40;10.88;;;;;;;;;;5127162;27;20225;-44
2022/06/08 11:41:35;;;;;;;12.07;10.50;;;;;;;;;;5052736;28;20224;-44
2022/06/08 11:44:13;;;;;;;11.80;10.20;;;;;;;;;;5053189;28;20282;-43
2022/06/08 11:46:53;;;;;;;15.80;10.98;;;;;;;;;;5052545;28;20232;-44
2022/06/08 11:49:42;;;;;;;14.10;11.02;;;;;;;;;;5038176;28;20530;-53
2022/06/08 11:52:30;;;;;;;12.27;10.93;;;;;;;;;;5036225;28;20322;-49
2022/06/08 11:55:19;;;;;;;12.63;9.20;;;;;;;;;;5052255;28;20232;-50
2022/06/08 11:57:50;;;;;;;13.30;9.52;;;;;;;;;;5051332;28;20266;-46
2022/06/08 12:00:31;;;;;;;12.27;10.43;;;;;;;;;;5049045;28;20223;-45
2022/06/08 12:03:20;;;;;;;16.77;11.20;;;;;;;;;;5049312;28;20675;-45
2022/06/08 12:05:51;;;;;;;16.77;11.65;;;;;;;;;;5041684;28;20246;-45
2022/06/08 12:08:40;;;;;;;12.27;11.05;;;;;;;;;;5068926;28;20219;-47
2022/06/08 12:11:28;;;;;;;12.93;11.07;;;;;;;;;;5055778;28;20233;-47
2022/06/08 12:14:01;;;;;;;16.80;11.60;;;;;;;;;;5114733;28;20222;-45
2022/06/08 12:16:33;;;;;;;12.80;10.98;;;;;;;;;;5114681;28;20287;-44
2022/06/08 12:19:11;;;;;;;14.75;11.70;;;;;;;;;;5114664;28;20674;-44
2022/06/08 12:21:42;;;;;;;16.70;12.60;;;;;;;;;;5114545;28;20226;-45
2022/06/08 12:24:19;;;;;;;17.00;12.25;;;;;;;;;;5121882;27;20228;-47
2022/06/08 12:27:01;;;;;;;14.90;11.45;;;;;;;;;;5134287;27;20237;-46
2022/06/08 12:29:37;;;;;;;12.48;11.05;;;;;;;;;;5134958;27;20223;-48
2022/06/08 12:32:07;;;;;;;12.40;10.63;;;;;;;;;;5135099;27;20273;-45
2022/06/08 12:34:47;;;;;;;11.20;10.00;;;;;;;;;;5134797;28;20666;-45
2022/06/08 12:37:27;;;;;;;12.82;10.80;;;;;;;;;;5134647;28;20224;-47
2022/06/08 12:39:56;;;;;;;13.93;10.38;;;;;;;;;;5133757;28;20244;-45
2022/06/08 12:42:28;;;;;;;11.80;9.63;;;;;;;;;;5134802;28;20229;-47
2022/06/08 12:45:02;;;;;;;16.08;9.63;;;;;;;;;;5135216;28;20217;-46
2022/06/08 12:47:40;;;;;;;14.38;10.00;;;;;;;;;;5134593;28;20228;-50
2022/06/08 12:50:15;;;;;;;11.30;9.25;;;;;;;;;;5134813;28;20217;-47
2022/06/08 12:52:43;;;;;;;12.30;10.40;;;;;;;;;;5134403;28;20220;-46
2022/06/08 12:55:14;;;;;;;10.57;9.55;;;;;;;;;;5134539;28;20678;-45
2022/06/08 12:57:42;;;;;;;10.45;9.30;;;;;;;;;;5129575;27;20249;-48
2022/06/08 13:00:16;;;;;;;11.35;9.13;;;;;;;;;;5114300;28;20225;-51
2022/06/08 13:02:44;;;;;;;9.85;8.75;;;;;;;;;;5114147;28;20536;-45
2022/06/08 13:05:23;;;;;;;10.77;9.75;;;;;;;;;;5114179;28;20238;-47
2022/06/08 13:07:54;;;;;;;19.40;9.65;;;;;;;;;;5114200;28;20225;-47
2022/06/08 13:10:23;;;;;;;13.85;9.32;;;;;;;;;;5114118;28;20290;-45
2022/06/08 13:12:58;;;;;;;12.73;9.57;;;;;;;;;;5098817;28;20663;-46
2022/06/08 13:15:31;;;;;;;14.60;9.90;;;;;;;;;;5125748;28;20262;-45
2022/06/08 13:17:59;;;;;;;12.57;9.35;;;;;;;;;;5134424;27;20543;-45
2022/06/08 13:20:33;;;;;;;10.88;9.63;;;;;;;;;;5134352;28;20312;-47
2022/06/08 13:23:01;;;;;;;10.43;9.43;;;;;;;;;;5134118;27;20653;-46
2022/06/08 13:25:34;;;;;;;11.25;10.15;;;;;;;;;;5134512;28;20221;-48
2022/06/08 13:28:08;;;;;;;14.95;9.82;;;;;;;;;;5134251;28;20221;-46
2022/06/08 13:30:37;;;;;;;11.25;9.30;;;;;;;;;;5117070;28;20225;-45
2022/06/08 13:33:04;;;;;;;13.73;8.93;;;;;;;;;;5130184;27;20218;-48
2022/06/08 13:35:32;;;;;;;13.27;9.30;;;;;;;;;;5124960;27;20225;-47
2022/06/08 13:37:59;;;;;;;13.55;9.23;;;;;;;;;;5135128;27;20224;-46
2022/06/08 13:40:29;;;;;;;12.15;7.88;;;;;;;;;;5137692;27;20226;-46
2022/06/08 13:42:58;;;;;;;8.75;7.45;;;;;;;;;;5137201;27;20301;-45
2022/06/08 13:45:32;;;;;;;9.43;7.43;;;;;;;;;;5137797;27;20262;-46
2022/06/08 13:48:04;;;;;;;11.77;8.20;;;;;;;;;;5120144;27;20228;-45
2022/06/08 13:50:36;;;;;;;10.93;8.18;;;;;;;;;;5131470;27;20222;-46
2022/06/08 13:53:06;;;;;;;9.57;7.90;;;;;;;;;;5121142;27;20234;-46
2022/06/08 13:55:40;;;;;;;11.15;7.88;;;;;;;;;;5117112;28;20234;-49
2022/06/08 13:58:11;;;;;;;12.35;7.93;;;;;;;;;;5117224;28;20254;-47
2022/06/08 14:00:51;;;;;;;11.48;9.05;;;;;;;;;;5117164;28;20708;-47
2022/06/08 14:03:34;;;;;;;11.52;8.60;;;;;;;;;;5129218;27;20216;-48
2022/06/08 14:15:05;;;;;;;9.10;6.60;;;;;;;;;;5117146;28;20314;-45
2022/06/08 14:17:33;;;;;;;9.38;6.80;;;;;;;;;;5116858;28;20596;-51
2022/06/08 14:20:00;;;;;;;7.50;6.80;;;;;;;;;;5116831;28;20249;-45
2022/06/08 14:22:33;;;;;;;7.32;6.25;;;;;;;;;;5127400;27;20674;-46
2022/06/08 14:25:05;;;;;;;8.63;7.28;;;;;;;;;;5136918;27;20695;-46
2022/06/08 14:27:34;;;;;;;10.13;6.70;;;;;;;;;;5133283;27;20229;-48
2022/06/08 14:30:14;;;;;;;7.63;5.72;;;;;;;;;;5136719;27;20236;-47
2022/06/08 14:32:46;;;;;;;7.10;6.13;;;;;;;;;;5137698;27;20274;-45
2022/06/08 14:35:24;;;;;;;8.80;6.90;;;;;;;;;;5136801;27;20247;-44
2022/06/08 14:38:14;;;;;;;7.35;6.32;;;;;;;;;;5137361;27;20236;-45
2022/06/08 14:40:41;;;;;;;7.30;6.20;;;;;;;;;;5119003;27;20217;-45
2022/06/08 14:43:08;;;;;;;8.05;5.97;;;;;;;;;;5136534;27;20229;-45
2022/06/08 14:45:37;;;;;;;9.02;5.78;;;;;;;;;;5136682;27;20240;-46
2022/06/08 14:48:17;;;;;;;6.10;5.50;;;;;;;;;;5137256;27;20229;-46
2022/06/08 14:50:47;;;;;;;7.57;5.93;;;;;;;;;;5117849;27;20503;-46
2022/06/08 14:53:17;;;;;;;6.32;5.47;;;;;;;;;;5136352;27;20594;-46
2022/06/08 14:58:31;;;;;;;6.03;5.50;;;;;;;;;;5136438;27;20753;-45
2022/06/08 15:00:59;;;;;;;5.97;5.03;;;;;;;;;;5136676;27;20224;-45
2022/06/08 15:03:27;;;;;;;8.30;5.30;;;;;;;;;;5136649;27;20221;-47
2022/06/08 15:05:54;;;;;;;8.90;5.40;;;;;;;;;;5136307;27;20248;-45
2022/06/08 15:08:21;;;;;;;11.25;5.45;;;;;;;;;;5136292;27;20677;-50
2022/06/08 15:13:44;;;;;;;7.05;6.35;;;;;;;;;;5120984;27;20236;-46
2022/06/08 15:16:12;;;;;;;7.07;6.10;;;;;;;;;;5136331;27;20224;-45
2022/06/08 15:18:40;;;;;;;7.32;6.03;;;;;;;;;;5135035;27;20200;-47
2022/06/08 15:21:09;;;;;;;6.85;5.90;;;;;;;;;;5129313;27;20193;-45
2022/06/08 15:23:37;;;;;;;8.77;6.13;;;;;;;;;;5134673;27;20197;-49
2022/06/08 15:26:04;;;;;;;8.38;6.00;;;;;;;;;;5136195;27;20255;-42
2022/06/08 15:28:34;;;;;;;10.52;6.00;;;;;;;;;;5137379;27;20201;-42